Time;durP1;ratioP1;P1;durP2;ratioP2;P2;SDS_P1;SDS_P2;PMS_P1;PMS_P2;Temp;Humidity;BMP_temperature;BMP_pressure;BME280_temperature;BME280_humidity;BME280_pressure;Samples;Min_cycle;Max_cycle;Signal;HPM_P1;HPM_P2
2023/12/08 00:02:11;;;;;;;8.90;3.90;;;;;;;-1.81;100.00;101353.23;109369;1253;60526;-54
2023/12/08 00:04:39;;;;;;;8.10;4.60;;;;;;;-1.81;100.00;101370.44;109438;1252;74737;-53
2023/12/08 00:07:07;;;;;;;7.70;4.70;;;;;;;-1.82;100.00;101346.45;109422;1252;65672;-54
2023/12/08 00:09:34;;;;;;;10.20;4.40;;;;;;;-1.82;100.00;101352.60;109434;1253;71652;-53
2023/12/08 00:12:02;;;;;;;7.90;4.60;;;;;;;-1.84;100.00;101345.50;109358;1253;59971;-54
2023/12/08 00:14:30;;;;;;;8.40;4.80;;;;;;;-1.84;100.00;101347.06;109443;1253;60094;-55
2023/12/08 00:16:57;;;;;;;8.80;5.20;;;;;;;-1.84;100.00;101341.77;109471;1252;74752;-54
2023/12/08 00:19:25;;;;;;;8.50;4.40;;;;;;;-1.83;100.00;101348.38;109485;1253;67404;-53
2023/12/08 00:21:53;;;;;;;8.00;4.60;;;;;;;-1.83;100.00;101344.64;109390;1253;72756;-54
2023/12/08 00:24:21;;;;;;;9.20;4.60;;;;;;;-1.84;100.00;101339.73;109414;1251;59025;-54
2023/12/08 00:26:48;;;;;;;7.40;4.10;;;;;;;-1.85;100.00;101331.95;109431;1252;60127;-53
2023/12/08 00:29:19;;;;;;;8.10;4.80;;;;;;;-1.87;100.00;101331.68;109420;1251;73574;-53
2023/12/08 00:31:47;;;;;;;7.20;4.00;;;;;;;-1.88;100.00;101326.13;109394;1252;66976;-54
2023/12/08 00:34:15;;;;;;;8.80;4.50;;;;;;;-1.88;100.00;101323.75;109458;1252;72233;-54
2023/12/08 00:36:43;;;;;;;8.30;4.60;;;;;;;-1.88;100.00;101334.33;109374;1252;60935;-53
2023/12/08 00:39:10;;;;;;;8.50;5.30;;;;;;;-1.88;100.00;101325.27;109450;1253;59267;-54
2023/12/08 00:41:38;;;;;;;6.90;4.20;;;;;;;-1.86;100.00;101325.52;109389;1252;75223;-54
2023/12/08 00:44:08;;;;;;;7.20;4.30;;;;;;;-1.92;100.00;101324.30;109426;1252;65931;-54
2023/12/08 00:46:36;;;;;;;8.40;5.10;;;;;;;-1.93;100.00;101317.20;109398;1253;71519;-54
2023/12/08 00:49:03;;;;;;;9.70;5.10;;;;;;;-1.91;100.00;101318.29;109419;1253;61094;-54
2023/12/08 00:51:31;;;;;;;9.00;4.60;;;;;;;-1.90;100.00;101317.53;109369;1252;60098;-54
2023/12/08 00:53:59;;;;;;;8.70;4.70;;;;;;;-1.90;100.00;101315.86;109405;1252;74729;-54
2023/12/08 00:56:28;;;;;;;9.50;5.30;;;;;;;-1.88;100.00;101329.70;109384;1253;67119;-55
2023/12/08 00:58:56;;;;;;;10.50;5.00;;;;;;;-1.87;100.00;101307.33;109405;1252;72899;-54
2023/12/08 01:01:24;;;;;;;10.30;5.10;;;;;;;-1.87;100.00;101307.02;109375;1252;60958;-54
2023/12/08 01:03:51;;;;;;;8.90;5.00;;;;;;;-1.87;100.00;101304.45;109419;1252;60706;-53
2023/12/08 01:06:19;;;;;;;7.10;4.10;;;;;;;-1.87;100.00;101306.45;109387;1253;73513;-54
2023/12/08 01:08:47;;;;;;;7.20;4.10;;;;;;;-1.87;100.00;101309.53;109404;1252;65622;-54
2023/12/08 01:11:15;;;;;;;8.00;3.70;;;;;;;-1.87;100.00;101293.37;109392;1253;72684;-54
2023/12/08 01:13:42;;;;;;;9.30;4.40;;;;;;;-1.86;100.00;101294.70;109381;1252;60956;-58
2023/12/08 01:16:10;;;;;;;8.50;4.70;;;;;;;-1.87;100.00;101290.95;109436;1252;58954;-54
2023/12/08 01:18:38;;;;;;;8.20;4.90;;;;;;;-1.89;100.00;101280.71;109414;1252;74728;-54
2023/12/08 01:21:06;;;;;;;9.30;5.00;;;;;;;-1.90;100.00;101281.45;109390;1252;66914;-54
2023/12/08 01:23:34;;;;;;;6.90;4.00;;;;;;;-1.91;100.00;101279.81;109418;1252;71419;-53
2023/12/08 01:26:05;;;;;;;7.30;4.10;;;;;;;-1.91;100.00;101274.84;109371;1253;59532;-54
2023/12/08 01:28:33;;;;;;;10.70;5.10;;;;;;;-1.90;100.00;101278.18;109449;1253;60159;-54
2023/12/08 01:31:01;;;;;;;7.50;4.50;;;;;;;-1.88;100.00;101278.09;109434;1252;74903;-54
2023/12/08 01:33:28;;;;;;;9.30;5.40;;;;;;;-1.89;100.00;101277.81;109436;1253;66242;-54
2023/12/08 01:35:56;;;;;;;7.70;4.30;;;;;;;-1.91;100.00;101279.77;109374;1253;72392;-59
2023/12/08 01:38:44;;;;;;;7.50;3.50;;;;;;;-1.91;100.00;101279.64;109443;1252;61256;-54
2023/12/08 01:41:14;;;;;;;8.10;4.40;;;;;;;-1.93;100.00;101282.96;109455;1252;59050;-54
2023/12/08 01:43:42;;;;;;;8.70;4.50;;;;;;;-1.94;100.00;101285.36;109454;1252;73732;-55
2023/12/08 01:46:12;;;;;;;10.30;5.50;;;;;;;-1.93;100.00;101289.94;109439;1253;67045;-54
2023/12/08 01:48:40;;;;;;;8.40;4.70;;;;;;;-1.96;100.00;101286.14;109293;1256;73145;-55
2023/12/08 01:51:09;;;;;;;7.90;4.90;;;;;;;-1.98;100.00;101288.44;109419;1253;59630;-54
2023/12/08 01:53:37;;;;;;;7.50;4.30;;;;;;;-1.99;100.00;101298.92;109435;1252;58903;-54
2023/12/08 01:56:06;;;;;;;8.50;5.20;;;;;;;-2.02;100.00;101282.69;109385;1253;74791;-54
2023/12/08 01:58:34;;;;;;;7.90;4.70;;;;;;;-2.04;100.00;101291.86;109354;1252;66938;-55
2023/12/08 02:01:03;;;;;;;10.20;5.10;;;;;;;-2.06;100.00;101289.02;109453;1253;72858;-54
2023/12/08 02:03:33;;;;;;;8.40;4.40;;;;;;;-2.07;100.00;101295.89;109394;1253;60931;-54
2023/12/08 02:06:01;;;;;;;8.30;5.20;;;;;;;-2.09;100.00;101287.65;109368;1253;60027;-55
2023/12/08 02:08:29;;;;;;;8.50;5.00;;;;;;;-2.11;100.00;101284.88;109428;1252;74675;-54
2023/12/08 02:10:57;;;;;;;11.10;5.40;;;;;;;-2.12;100.00;101290.71;109430;1253;66003;-54
2023/12/08 02:13:25;;;;;;;7.60;4.80;;;;;;;-2.13;100.00;101280.35;109397;1253;71439;-54
2023/12/08 02:15:55;;;;;;;7.70;4.70;;;;;;;-2.15;100.00;101293.92;109389;1252;59761;-58
2023/12/08 02:18:22;;;;;;;9.20;4.70;;;;;;;-2.16;100.00;101292.25;109403;1252;60106;-55
2023/12/08 02:20:50;;;;;;;10.30;4.90;;;;;;;-2.16;100.00;101297.56;109414;1252;76892;-54
2023/12/08 02:23:18;;;;;;;10.60;5.20;;;;;;;-2.18;100.00;101286.61;109422;1252;65627;-54
2023/12/08 02:25:45;;;;;;;8.00;4.20;;;;;;;-2.19;100.00;101284.24;109366;1253;71495;-54
2023/12/08 02:28:13;;;;;;;8.40;4.70;;;;;;;-2.20;100.00;101299.09;109370;1252;59664;-54
2023/12/08 02:30:40;;;;;;;9.80;4.90;;;;;;;-2.23;100.00;101290.89;109399;1252;59012;-54
2023/12/08 02:33:13;;;;;;;8.40;4.80;;;;;;;-2.25;100.00;101298.80;109439;1252;73515;-54
2023/12/08 02:35:41;;;;;;;9.10;5.60;;;;;;;-2.25;100.00;101296.98;109342;1254;64657;-54
2023/12/08 02:38:09;;;;;;;9.30;5.50;;;;;;;-2.27;100.00;101298.40;109211;1253;72763;-54
2023/12/08 02:40:36;;;;;;;8.10;4.90;;;;;;;-2.28;100.00;101308.00;109149;1252;59687;-56
2023/12/08 02:43:04;;;;;;;8.10;4.70;;;;;;;-2.30;100.00;101301.65;109448;1252;59325;-55
2023/12/08 02:45:31;;;;;;;8.70;4.70;;;;;;;-2.32;100.00;101303.41;109446;1252;74651;-55
2023/12/08 02:47:59;;;;;;;9.10;5.10;;;;;;;-2.32;100.00;101304.27;109416;1253;66972;-58
2023/12/08 02:50:27;;;;;;;10.70;4.70;;;;;;;-2.33;100.00;101297.19;109376;1253;73203;-54
2023/12/08 02:52:54;;;;;;;7.40;4.50;;;;;;;-2.34;100.00;101301.50;109421;1253;60880;-55
2023/12/08 02:55:22;;;;;;;9.50;5.70;;;;;;;-2.34;100.00;101316.33;109402;1252;60089;-54
2023/12/08 02:57:49;;;;;;;9.60;5.30;;;;;;;-2.36;100.00;101309.07;109417;1253;74886;-54
2023/12/08 03:00:17;;;;;;;10.40;6.10;;;;;;;-2.37;100.00;101308.27;109428;1252;67972;-55
2023/12/08 03:02:45;;;;;;;7.50;4.20;;;;;;;-2.36;100.00;101306.03;109391;1253;71803;-55
2023/12/08 03:05:13;;;;;;;8.70;5.40;;;;;;;-2.37;100.00;101296.88;109395;1252;59664;-54
2023/12/08 03:07:40;;;;;;;8.40;4.80;;;;;;;-2.38;100.00;101287.58;109500;1253;60046;-55
2023/12/08 03:10:08;;;;;;;8.20;4.90;;;;;;;-2.38;100.00;101286.88;109429;1252;73794;-59
2023/12/08 03:12:36;;;;;;;9.30;5.40;;;;;;;-2.38;100.00;101291.66;109447;1253;65608;-54
2023/12/08 03:15:04;;;;;;;8.30;4.60;;;;;;;-2.39;100.00;101282.81;109432;1252;72732;-54
2023/12/08 03:17:32;;;;;;;8.00;4.80;;;;;;;-2.39;100.00;101286.07;109406;1253;60841;-54
2023/12/08 03:19:59;;;;;;;7.90;5.00;;;;;;;-2.40;100.00;101281.67;109465;1253;60107;-54
2023/12/08 03:22:27;;;;;;;7.10;4.50;;;;;;;-2.40;100.00;101294.11;109367;1253;74700;-54
2023/12/08 03:24:55;;;;;;;9.00;4.60;;;;;;;-2.41;100.00;101297.90;109481;1252;65777;-54
2023/12/08 03:27:22;;;;;;;8.90;4.70;;;;;;;-2.41;100.00;101286.35;109413;1252;71713;-53
2023/12/08 03:29:50;;;;;;;8.90;5.00;;;;;;;-2.41;100.00;101292.98;109393;1254;59606;-53
2023/12/08 03:32:18;;;;;;;7.80;4.60;;;;;;;-2.42;100.00;101286.89;109420;1253;60243;-54
2023/12/08 03:34:46;;;;;;;8.60;4.70;;;;;;;-2.41;100.00;101283.13;109423;1253;74710;-54
2023/12/08 03:37:13;;;;;;;7.90;4.50;;;;;;;-2.41;100.00;101295.22;109453;1253;66934;-53
2023/12/08 03:39:43;;;;;;;8.00;4.90;;;;;;;-2.41;100.00;101286.03;109382;1252;71723;-54
2023/12/08 03:42:10;;;;;;;8.50;4.60;;;;;;;-2.41;100.00;101294.70;109415;1253;59686;-57
2023/12/08 03:44:38;;;;;;;9.90;4.90;;;;;;;-2.40;100.00;101299.23;109421;1253;59916;-54
2023/12/08 03:47:06;;;;;;;6.30;3.60;;;;;;;-2.40;100.00;101297.17;109437;1253;73455;-54
2023/12/08 03:49:33;;;;;;;7.70;4.60;;;;;;;-2.40;100.00;101292.77;109411;1253;66938;-54
2023/12/08 03:52:01;;;;;;;10.00;4.80;;;;;;;-2.39;100.00;101293.58;109392;1252;71113;-53
2023/12/08 03:54:29;;;;;;;8.60;4.80;;;;;;;-2.40;100.00;101282.71;109354;1253;60935;-58
2023/12/08 03:56:57;;;;;;;8.90;5.40;;;;;;;-2.40;100.00;101280.82;109404;1253;59037;-53
2023/12/08 03:59:25;;;;;;;7.70;4.90;;;;;;;-2.40;100.00;101280.84;109435;1252;74649;-53
2023/12/08 04:01:53;;;;;;;7.30;4.70;;;;;;;-2.41;100.00;101295.73;109424;1253;65775;-53
2023/12/08 04:04:21;;;;;;;9.10;4.70;;;;;;;-2.41;100.00;101304.55;109353;1253;71438;-54
2023/12/08 04:06:56;;;;;;;10.00;4.40;;;;;;;-2.39;100.00;101311.98;109390;1253;60923;-54
2023/12/08 04:09:24;;;;;;;9.10;4.80;;;;;;;-2.39;100.00;101300.38;109473;1252;60107;-54
2023/12/08 04:11:55;;;;;;;7.90;5.00;;;;;;;-2.37;100.00;101318.52;109390;1252;74772;-54
2023/12/08 04:14:23;;;;;;;7.60;5.00;;;;;;;-2.38;100.00;101308.52;109446;1253;67041;-54
2023/12/08 04:16:51;;;;;;;8.10;4.60;;;;;;;-2.39;100.00;101301.92;109425;1252;72664;-53
2023/12/08 04:19:19;;;;;;;8.40;4.90;;;;;;;-2.39;100.00;101329.30;109465;1252;60997;-53
2023/12/08 04:21:48;;;;;;;8.30;4.80;;;;;;;-2.40;100.00;101318.46;109478;1253;60070;-54
2023/12/08 04:24:15;;;;;;;8.30;4.40;;;;;;;-2.40;100.00;101304.36;109374;1253;73567;-55
2023/12/08 04:26:44;;;;;;;8.20;4.60;;;;;;;-2.40;100.00;101306.35;109453;1252;67175;-53
2023/12/08 04:29:11;;;;;;;7.40;4.60;;;;;;;-2.39;100.00;101301.20;109384;1252;72897;-53
2023/12/08 04:31:39;;;;;;;13.20;5.30;;;;;;;-2.37;100.00;101306.93;109389;1252;61110;-54
2023/12/08 04:34:07;;;;;;;9.10;4.90;;;;;;;-2.37;100.00;101310.49;109367;1252;59348;-53
2023/12/08 04:36:35;;;;;;;9.50;4.50;;;;;;;-2.37;100.00;101322.75;109409;1253;74751;-54
2023/12/08 04:39:02;;;;;;;8.90;4.40;;;;;;;-2.37;100.00;101318.84;109443;1252;67080;-54
2023/12/08 04:41:30;;;;;;;8.00;4.60;;;;;;;-2.37;100.00;101323.11;109443;1253;72712;-53
2023/12/08 04:43:57;;;;;;;7.30;4.60;;;;;;;-2.38;100.00;101325.68;109393;1252;60922;-55
2023/12/08 04:46:25;;;;;;;9.10;4.90;;;;;;;-2.37;100.00;101320.05;109407;1251;59495;-57
2023/12/08 04:48:53;;;;;;;7.60;5.20;;;;;;;-2.37;100.00;101315.58;109430;1253;73425;-53
2023/12/08 04:51:20;;;;;;;8.90;4.60;;;;;;;-2.37;100.00;101312.18;109424;1252;66241;-54
2023/12/08 04:53:48;;;;;;;9.00;5.60;;;;;;;-2.37;100.00;101308.27;109451;1253;72709;-55
2023/12/08 04:56:15;;;;;;;6.30;3.70;;;;;;;-2.38;100.00;101309.34;109412;1252;59681;-57
2023/12/08 04:58:43;;;;;;;8.60;4.90;;;;;;;-2.38;100.00;101308.31;109402;1253;59404;-54
2023/12/08 05:01:14;;;;;;;8.20;4.50;;;;;;;-2.38;100.00;101309.19;109430;1253;73410;-54
2023/12/08 05:03:41;;;;;;;8.40;4.50;;;;;;;-2.37;100.00;101309.66;109443;1253;65810;-54
2023/12/08 05:06:09;;;;;;;7.60;4.20;;;;;;;-2.36;100.00;101305.00;109452;1252;72751;-54
2023/12/08 05:08:38;;;;;;;8.70;4.70;;;;;;;-2.35;100.00;101305.81;109342;1253;60932;-54
2023/12/08 05:11:07;;;;;;;8.40;4.40;;;;;;;-2.35;100.00;101314.48;109448;1251;59195;-54
2023/12/08 05:13:35;;;;;;;7.30;4.10;;;;;;;-2.35;100.00;101303.73;109415;1253;74766;-54
2023/12/08 05:16:03;;;;;;;7.50;4.60;;;;;;;-2.35;100.00;101298.80;109378;1252;65630;-57
2023/12/08 05:18:30;;;;;;;6.90;4.00;;;;;;;-2.34;100.00;101304.02;109401;1252;72746;-53
2023/12/08 05:20:58;;;;;;;8.10;4.50;;;;;;;-2.34;100.00;101306.11;109371;1254;59332;-56
2023/12/08 05:23:26;;;;;;;8.90;4.50;;;;;;;-2.35;100.00;101301.20;109406;1251;60036;-53
2023/12/08 05:25:53;;;;;;;8.50;5.10;;;;;;;-2.35;100.00;101303.56;109418;1252;73547;-53
2023/12/08 05:28:21;;;;;;;8.60;4.90;;;;;;;-2.33;100.00;101305.54;109394;1252;66907;-55
2023/12/08 05:30:49;;;;;;;8.00;4.40;;;;;;;-2.32;100.00;101304.80;109419;1252;72375;-53
2023/12/08 05:33:17;;;;;;;9.00;4.80;;;;;;;-2.31;100.00;101296.41;109381;1252;60968;-53
2023/12/08 05:35:45;;;;;;;8.30;4.60;;;;;;;-2.30;100.00;101297.20;109444;1252;59127;-53
2023/12/08 05:38:12;;;;;;;10.50;3.90;;;;;;;-2.26;100.00;101294.30;109430;1252;74711;-56
2023/12/08 05:40:40;;;;;;;6.80;4.10;;;;;;;-2.24;100.00;101299.63;109389;1252;67000;-56
2023/12/08 05:43:08;;;;;;;6.30;3.90;;;;;;;-2.24;100.00;101304.56;109432;1252;71566;-57
2023/12/08 05:45:35;;;;;;;8.40;4.70;;;;;;;-2.24;100.00;101296.04;109470;1253;59752;-57
2023/12/08 05:48:03;;;;;;;9.90;5.40;;;;;;;-2.24;100.00;101299.62;109460;1252;59593;-56
2023/12/08 05:50:32;;;;;;;7.60;4.50;;;;;;;-2.22;100.00;101300.71;109417;1254;73423;-57
2023/12/08 05:52:59;;;;;;;9.00;4.90;;;;;;;-2.21;100.00;101298.30;109437;1252;66952;-54
2023/12/08 05:55:27;;;;;;;8.10;5.10;;;;;;;-2.19;100.00;101305.21;109408;1253;72802;-57
2023/12/08 05:57:55;;;;;;;6.90;4.40;;;;;;;-2.20;100.00;101302.34;109414;1253;60925;-54
2023/12/08 06:00:22;;;;;;;8.40;4.60;;;;;;;-2.18;100.00;101308.58;109447;1252;60130;-54
2023/12/08 06:02:50;;;;;;;7.60;4.60;;;;;;;-2.19;100.00;101310.96;109356;1254;74791;-54
2023/12/08 06:05:18;;;;;;;8.40;5.00;;;;;;;-2.18;100.00;101308.71;109451;1254;65850;-54
2023/12/08 06:07:46;;;;;;;10.30;5.30;;;;;;;-2.18;100.00;101300.38;109447;1252;72531;-55
2023/12/08 06:10:13;;;;;;;9.80;5.70;;;;;;;-2.18;100.00;101302.25;109380;1254;60956;-55
2023/12/08 06:12:41;;;;;;;8.30;4.70;;;;;;;-2.17;100.00;101299.28;109410;1252;60174;-59
2023/12/08 06:15:10;;;;;;;10.30;6.20;;;;;;;-2.15;100.00;101300.23;109399;1253;74679;-55
2023/12/08 06:17:37;;;;;;;8.80;4.80;;;;;;;-2.14;100.00;101291.34;109427;1252;67037;-55
2023/12/08 06:20:08;;;;;;;9.00;4.90;;;;;;;-2.13;100.00;101314.42;109390;1252;72637;-56
2023/12/08 06:22:37;;;;;;;10.60;5.10;;;;;;;-2.14;100.00;101291.66;109408;1253;59957;-59
2023/12/08 06:25:05;;;;;;;8.10;5.10;;;;;;;-2.15;100.00;101308.55;109438;1252;60088;-55
2023/12/08 06:27:33;;;;;;;8.00;5.20;;;;;;;-2.14;100.00;101315.86;109429;1253;73478;-55
2023/12/08 06:30:01;;;;;;;9.00;4.80;;;;;;;-2.14;100.00;101313.49;109444;1252;64729;-55
2023/12/08 06:32:29;;;;;;;8.30;5.10;;;;;;;-2.13;100.00;101308.65;109419;1252;71393;-55
2023/12/08 06:34:57;;;;;;;10.10;5.40;;;;;;;-2.13;100.00;101307.79;109348;1254;59571;-56
2023/12/08 06:37:24;;;;;;;9.20;4.90;;;;;;;-2.12;100.00;101307.73;109405;1253;59147;-55
2023/12/08 06:39:52;;;;;;;8.60;4.10;;;;;;;-2.12;100.00;101322.55;109434;1253;74168;-54
2023/12/08 06:42:21;;;;;;;10.30;5.10;;;;;;;-2.14;100.00;101316.69;109449;1253;65643;-54
2023/12/08 06:44:49;;;;;;;10.50;6.10;;;;;;;-2.14;100.00;101324.16;109413;1252;72766;-58
2023/12/08 06:47:17;;;;;;;9.70;5.40;;;;;;;-2.13;100.00;101326.88;109404;1253;59539;-55
2023/12/08 06:49:44;;;;;;;8.80;5.60;;;;;;;-2.11;100.00;101325.24;109443;1252;59018;-56
2023/12/08 06:52:12;;;;;;;9.80;5.70;;;;;;;-2.10;100.00;101317.33;109400;1252;73434;-55
2023/12/08 06:54:40;;;;;;;7.40;4.50;;;;;;;-2.07;100.00;101317.05;109407;1254;65716;-57
2023/12/08 06:57:08;;;;;;;8.80;5.00;;;;;;;-2.05;100.00;101318.64;109480;1252;71396;-55
2023/12/08 06:59:36;;;;;;;11.80;6.00;;;;;;;-2.05;100.00;101320.83;109464;1252;59625;-54
2023/12/08 07:02:04;;;;;;;9.50;5.50;;;;;;;-2.10;100.00;101315.83;109443;1252;59039;-55
2023/12/08 07:04:31;;;;;;;9.40;5.10;;;;;;;-2.03;100.00;101318.03;109422;1252;73447;-55
2023/12/08 07:06:59;;;;;;;9.90;5.80;;;;;;;-1.99;100.00;101321.08;109415;1253;67815;-54
2023/12/08 07:09:27;;;;;;;9.50;5.90;;;;;;;-1.98;100.00;101320.99;109424;1256;72714;-55
2023/12/08 07:11:55;;;;;;;8.40;4.90;;;;;;;-1.96;100.00;101308.98;109402;1253;60958;-54
2023/12/08 07:14:25;;;;;;;8.50;5.00;;;;;;;-1.96;100.00;101320.74;109450;1253;59378;-54
2023/12/08 07:16:52;;;;;;;9.30;5.30;;;;;;;-1.97;100.00;101313.95;109375;1252;74672;-55
2023/12/08 07:19:20;;;;;;;11.10;6.40;;;;;;;-1.98;100.00;101315.38;109468;1252;67046;-54
2023/12/08 07:21:48;;;;;;;12.70;8.50;;;;;;;-1.99;100.00;101305.69;109380;1253;71463;-55
2023/12/08 07:24:16;;;;;;;10.50;6.00;;;;;;;-1.95;100.00;101315.95;109388;1252;59700;-55
2023/12/08 07:26:44;;;;;;;12.00;7.40;;;;;;;-1.95;100.00;101310.82;109421;1253;60103;-57
2023/12/08 07:29:12;;;;;;;9.40;5.50;;;;;;;-1.95;100.00;101304.99;109439;1253;75655;-55
2023/12/08 07:31:39;;;;;;;10.50;5.20;;;;;;;-1.94;100.00;101303.77;109419;1253;67165;-59
2023/12/08 07:34:07;;;;;;;10.40;6.40;;;;;;;-1.94;100.00;101306.52;109421;1252;72652;-55
2023/12/08 07:36:35;;;;;;;12.20;7.00;;;;;;;-1.93;100.00;101296.23;109411;1252;61113;-55
2023/12/08 07:39:03;;;;;;;12.20;6.80;;;;;;;-1.89;100.00;101294.70;109373;1252;60113;-55
2023/12/08 07:41:30;;;;;;;12.20;6.80;;;;;;;-1.90;100.00;101298.63;109493;1253;74796;-55
2023/12/08 07:43:59;;;;;;;15.10;9.00;;;;;;;-1.91;100.00;101299.52;109407;1253;66883;-55
2023/12/08 07:46:27;;;;;;;10.40;5.40;;;;;;;-1.91;100.00;101291.03;109432;1252;72612;-55
2023/12/08 07:48:54;;;;;;;13.80;7.20;;;;;;;-1.91;100.00;101312.64;109402;1253;59699;-56
2023/12/08 07:51:22;;;;;;;25.30;16.60;;;;;;;-1.90;100.00;101307.69;109453;1251;60412;-55
2023/12/08 07:53:50;;;;;;;13.60;7.20;;;;;;;-1.87;100.00;101301.05;109450;1253;75189;-55
2023/12/08 07:56:18;;;;;;;36.80;19.60;;;;;;;-1.86;100.00;101297.25;109479;1253;66972;-56
2023/12/08 07:58:45;;;;;;;25.20;13.70;;;;;;;-1.83;100.00;101301.01;109424;1252;72805;-58
2023/12/08 08:01:13;;;;;;;15.10;9.60;;;;;;;-1.81;100.00;101305.34;109394;1253;59376;-54
2023/12/08 08:03:40;;;;;;;11.70;6.30;;;;;;;-1.79;100.00;101304.70;109469;1252;60042;-55
2023/12/08 08:06:09;;;;;;;11.50;7.30;;;;;;;-1.77;100.00;101309.70;109432;1254;74733;-55
2023/12/08 08:08:36;;;;;;;16.00;9.60;;;;;;;-1.77;100.00;101310.73;109424;1252;66959;-55
2023/12/08 08:11:04;;;;;;;12.40;7.90;;;;;;;-1.78;100.00;101313.86;109351;1253;72752;-56
2023/12/08 08:13:32;;;;;;;12.60;7.50;;;;;;;-1.78;100.00;101320.69;109363;1253;61047;-55
2023/12/08 08:15:59;;;;;;;18.40;10.90;;;;;;;-1.78;100.00;101308.76;109411;1253;60126;-55
2023/12/08 08:18:30;;;;;;;15.70;9.90;;;;;;;-1.78;100.00;101311.65;109404;1253;74078;-54
2023/12/08 08:20:58;;;;;;;10.30;6.90;;;;;;;-1.80;100.00;101310.87;109370;1253;65642;-55
2023/12/08 08:23:25;;;;;;;10.90;6.60;;;;;;;-1.81;100.00;101294.77;109415;1253;71434;-54
2023/12/08 08:25:53;;;;;;;8.80;5.60;;;;;;;-1.83;100.00;101295.02;109387;1253;59715;-54
2023/12/08 08:28:22;;;;;;;9.10;5.60;;;;;;;-1.83;100.00;101297.61;109399;1253;60112;-54
2023/12/08 08:30:49;;;;;;;10.50;6.10;;;;;;;-1.84;100.00;101292.34;109411;1252;74756;-55
2023/12/08 08:33:17;;;;;;;10.70;6.50;;;;;;;-1.84;100.00;101297.96;109417;1253;65617;-54
2023/12/08 08:35:45;;;;;;;9.40;6.20;;;;;;;-1.82;100.00;101288.86;109406;1253;72713;-54
2023/12/08 08:38:13;;;;;;;10.30;6.50;;;;;;;-1.83;100.00;101287.70;109383;1252;60438;-56
2023/12/08 08:40:40;;;;;;;10.60;6.70;;;;;;;-1.82;100.00;101284.78;109436;1254;59819;-56
2023/12/08 08:43:08;;;;;;;10.00;6.50;;;;;;;-1.82;100.00;101281.86;109408;1253;74940;-57
2023/12/08 08:45:35;;;;;;;8.50;4.90;;;;;;;-1.79;100.00;101278.11;109399;1253;67498;-55
2023/12/08 08:48:03;;;;;;;9.60;4.80;;;;;;;-1.76;100.00;101270.48;109406;1253;72764;-56
2023/12/08 08:50:32;;;;;;;8.20;5.60;;;;;;;-1.74;100.00;101269.88;109416;1253;61930;-56
2023/12/08 08:53:17;;;;;;;10.80;6.10;;;;;;;-1.73;100.00;101267.59;109360;1253;60125;-56
2023/12/08 08:55:45;;;;;;;10.70;6.60;;;;;;;-1.71;100.00;101269.70;109418;1252;73555;-56
2023/12/08 08:58:12;;;;;;;9.00;5.50;;;;;;;-1.67;100.00;101270.21;109398;1255;66990;-55
2023/12/08 09:00:40;;;;;;;10.40;6.50;;;;;;;-1.65;100.00;101259.87;109406;1253;72762;-55
2023/12/08 09:03:07;;;;;;;10.30;6.60;;;;;;;-1.63;100.00;101252.46;109347;1253;60989;-59
2023/12/08 09:05:40;;;;;;;8.20;4.60;;;;;;;-1.64;100.00;101257.42;109404;1252;60972;-55
2023/12/08 09:08:09;;;;;;;9.40;5.10;;;;;;;-1.63;100.00;101247.67;109430;1253;74308;-55
2023/12/08 09:10:37;;;;;;;10.70;6.40;;;;;;;-1.63;100.00;101243.23;109424;1253;66311;-55
2023/12/08 09:13:04;;;;;;;12.20;7.90;;;;;;;-1.64;100.00;101246.84;109371;1253;72720;-55
2023/12/08 09:15:32;;;;;;;10.10;7.00;;;;;;;-1.61;100.00;101242.26;109426;1253;61353;-56
2023/12/08 09:18:00;;;;;;;12.10;7.50;;;;;;;-1.61;100.00;101247.92;109416;1253;60111;-55
2023/12/08 09:20:28;;;;;;;11.80;6.60;;;;;;;-1.58;100.00;101242.30;109407;1253;76679;-55
2023/12/08 09:22:55;;;;;;;8.30;5.00;;;;;;;-1.56;100.00;101238.61;109400;1253;69258;-56
2023/12/08 09:25:23;;;;;;;9.50;5.30;;;;;;;-1.55;100.00;101242.47;109427;1254;71592;-56
2023/12/08 09:27:51;;;;;;;8.80;5.60;;;;;;;-1.53;100.00;101241.51;109387;1254;59046;-56
2023/12/08 09:30:18;;;;;;;8.70;5.20;;;;;;;-1.53;100.00;101244.25;109368;1253;59029;-56
2023/12/08 09:32:46;;;;;;;9.60;6.30;;;;;;;-1.56;100.00;101238.25;109448;1254;74739;-57
2023/12/08 09:35:14;;;;;;;7.90;4.90;;;;;;;-1.59;100.00;101236.52;109466;1253;65971;-54
2023/12/08 09:37:42;;;;;;;7.80;5.00;;;;;;;-1.62;100.00;101237.20;109378;1254;74609;-55
2023/12/08 09:40:11;;;;;;;9.00;5.40;;;;;;;-1.63;100.00;101228.59;109405;1253;59657;-56
2023/12/08 09:42:41;;;;;;;8.50;4.70;;;;;;;-1.62;100.00;101241.48;109243;1254;62170;-60
2023/12/08 09:45:12;;;;;;;8.20;4.40;;;;;;;-1.61;100.00;101231.84;109420;1253;73923;-56
2023/12/08 09:47:40;;;;;;;7.20;4.10;;;;;;;-1.61;100.00;101226.80;109410;1253;67062;-55
2023/12/08 09:50:12;;;;;;;8.00;4.40;;;;;;;-1.61;100.00;101225.05;109394;1254;74199;-56
2023/12/08 09:52:40;;;;;;;7.20;4.50;;;;;;;-1.59;100.00;101227.15;109379;1254;63082;-56
2023/12/08 09:55:08;;;;;;;8.80;5.60;;;;;;;-1.58;100.00;101220.84;109403;1252;60623;-55
2023/12/08 09:57:36;;;;;;;8.90;5.70;;;;;;;-1.57;100.00;101218.36;109374;1252;75719;-56
2023/12/08 10:00:13;;;;;;;9.20;5.80;;;;;;;-1.57;100.00;101222.09;109445;1252;68362;-56
2023/12/08 10:02:41;;;;;;;7.90;5.00;;;;;;;-1.57;100.00;101214.14;109341;1254;74410;-54
2023/12/08 10:05:10;;;;;;;8.10;4.80;;;;;;;-1.58;100.00;101216.35;109406;1253;59541;-54
2023/12/08 10:07:40;;;;;;;7.70;4.30;;;;;;;-1.60;100.00;101227.23;109413;1252;60140;-55
2023/12/08 10:10:09;;;;;;;8.40;4.60;;;;;;;-1.63;100.00;101214.80;109431;1252;76911;-55
2023/12/08 10:12:39;;;;;;;7.50;4.70;;;;;;;-1.64;100.00;101210.59;109215;1256;68085;-55
2023/12/08 10:15:11;;;;;;;7.60;4.30;;;;;;;-1.65;100.00;101210.10;109424;1254;72522;-55
2023/12/08 10:17:47;;;;;;;8.20;4.70;;;;;;;-1.65;100.00;101204.00;109466;1253;61625;-55
2023/12/08 10:20:17;;;;;;;17.10;9.60;;;;;;;-1.64;100.00;101201.36;109376;1253;62324;-60
2023/12/08 10:22:55;;;;;;;11.60;7.10;;;;;;;-1.65;100.00;101203.61;109392;1254;73530;-56
2023/12/08 10:25:26;;;;;;;14.30;8.10;;;;;;;-1.66;100.00;101202.02;109461;1253;67171;-55
2023/12/08 10:27:55;;;;;;;8.10;4.70;;;;;;;-1.69;100.00;101194.17;109413;1254;72790;-59
2023/12/08 10:30:24;;;;;;;6.60;4.40;;;;;;;-1.69;100.00;101200.27;109403;1253;61637;-56
2023/12/08 10:32:52;;;;;;;9.00;4.50;;;;;;;-1.69;100.00;101204.35;109434;1253;59957;-55
2023/12/08 10:35:20;;;;;;;10.10;5.30;;;;;;;-1.71;100.00;101195.55;109437;1253;77308;-55
2023/12/08 10:37:47;;;;;;;8.40;4.80;;;;;;;-1.72;100.00;101186.09;109430;1251;66866;-58
2023/12/08 10:40:18;;;;;;;7.00;3.90;;;;;;;-1.74;100.00;101194.21;109396;1254;74802;-54
2023/12/08 10:42:47;;;;;;;7.00;4.00;;;;;;;-1.76;100.00;101188.85;109293;1258;60998;-54
2023/12/08 10:45:16;;;;;;;8.70;4.60;;;;;;;-1.76;100.00;101193.61;109412;1253;59074;-55
2023/12/08 10:47:45;;;;;;;6.90;4.30;;;;;;;-1.76;100.00;101184.95;109401;1253;76897;-59
2023/12/08 10:50:14;;;;;;;9.10;5.50;;;;;;;-1.75;100.00;101179.25;109435;1254;69331;-55
2023/12/08 10:52:41;;;;;;;6.80;4.70;;;;;;;-1.73;100.00;101174.92;109398;1252;74793;-54
2023/12/08 10:55:09;;;;;;;10.30;4.70;;;;;;;-1.73;100.00;101180.02;109361;1253;61810;-54
2023/12/08 10:57:38;;;;;;;10.30;5.10;;;;;;;-1.75;100.00;101184.18;109464;1252;62106;-54
2023/12/08 11:00:16;;;;;;;8.10;4.00;;;;;;;-1.75;100.00;101182.65;109407;1253;74611;-54
2023/12/08 11:02:48;;;;;;;8.30;4.20;;;;;;;-1.78;100.00;101185.92;109412;1253;67673;-55
2023/12/08 11:05:30;;;;;;;7.90;4.30;;;;;;;-1.82;100.00;101181.67;109426;1253;75024;-55
2023/12/08 11:08:00;;;;;;;7.90;4.30;;;;;;;-1.84;100.00;101179.06;109418;1252;62212;-55
2023/12/08 11:10:29;;;;;;;7.00;3.90;;;;;;;-1.85;100.00;101179.98;109440;1252;62993;-55
2023/12/08 11:13:06;;;;;;;7.10;4.00;;;;;;;-1.86;100.00;101174.39;109413;1254;76803;-55